Beulah, Minnesota
Current Conditions -  °F | °C
As of 4:56 PM on Thursday 20 Nov 2014 (Local Time) from KXVG Reporting Station
Clear Clear  
Wind Chill: 10°   Ceiling: Unl
Heat Index: 10°   Visibility: 10mi
Dew Point: -2°   Wind: 0mph
Humidity: 57%   Direction: NA
Pressure: 30.11"   Gusts: NA
Location:  46.8459°N, 93.8976°W
Report Text: KXVG 202256Z AUTO 00000KT 10SM CLR M12/M19 A3011 RMK AO2
Loading
Personal Weather Stations






























Interactive Weather Map New forecast layout! Learn more

10-Day Weather Forecast

Advertisements
Track Severe Weather on mobile